Time;durP1;ratioP1;P1;durP2;ratioP2;P2;SDS_P1;SDS_P2;PMS_P1;PMS_P2;Temp;Humidity;BMP_temperature;BMP_pressure;BME280_temperature;BME280_humidity;BME280_pressure;Samples;Min_cycle;Max_cycle;Signal;HPM_P1;HPM_P2
2023/05/29 00:01:20;;;;;;;8.05;3.83;;;23.70;61.20;;;;;;6185554;23;20005;-78
2023/05/29 00:03:46;;;;;;;7.55;4.00;;;23.60;61.20;;;;;;6184618;23;20017;-78
2023/05/29 00:06:13;;;;;;;5.28;3.88;;;23.60;61.20;;;;;;6185512;23;20080;-77
2023/05/29 00:08:39;;;;;;;8.38;3.67;;;23.60;61.30;;;;;;6184859;23;19997;-78
2023/05/29 00:11:05;;;;;;;5.30;3.97;;;23.60;61.30;;;;;;6185866;23;20435;-79
2023/05/29 00:13:30;;;;;;;4.85;3.78;;;23.50;61.30;;;;;;6185210;23;20001;-79
2023/05/29 00:15:56;;;;;;;4.68;3.38;;;23.50;61.50;;;;;;6186020;23;20001;-79
2023/05/29 00:18:22;;;;;;;6.07;3.88;;;23.50;61.60;;;;;;6185893;23;20001;-79
2023/05/29 00:20:48;;;;;;;7.47;3.85;;;23.50;61.70;;;;;;6185786;23;20001;-79
2023/05/29 00:23:13;;;;;;;6.80;4.35;;;23.50;61.80;;;;;;6184993;23;20001;-78
2023/05/29 00:25:42;;;;;;;6.35;4.18;;;23.50;61.90;;;;;;6183720;23;20071;-78
2023/05/29 00:28:09;;;;;;;6.50;4.10;;;23.40;62.10;;;;;;6185197;23;20005;-78
2023/05/29 00:30:34;;;;;;;9.52;4.43;;;23.40;62.20;;;;;;6185927;23;20073;-79
2023/05/29 00:33:00;;;;;;;7.82;4.75;;;23.40;62.50;;;;;;6183164;23;20024;-79
2023/05/29 00:35:26;;;;;;;7.00;4.30;;;23.40;62.30;;;;;;6185091;23;20020;-79
2023/05/29 00:37:52;;;;;;;6.60;4.50;;;23.30;62.40;;;;;;6185607;23;20033;-79
2023/05/29 00:40:18;;;;;;;8.65;4.53;;;23.30;62.50;;;;;;6185967;23;19997;-79
2023/05/29 00:42:44;;;;;;;6.20;4.25;;;23.30;62.70;;;;;;6185086;23;20004;-79
2023/05/29 00:45:10;;;;;;;7.63;4.85;;;23.20;62.70;;;;;;6185223;23;20005;-79
2023/05/29 00:47:36;;;;;;;6.82;4.32;;;23.20;63.20;;;;;;6184670;23;20001;-79
2023/05/29 00:50:03;;;;;;;7.53;4.95;;;23.20;63.00;;;;;;6184714;23;20006;-77
2023/05/29 00:52:29;;;;;;;7.30;4.18;;;23.10;63.40;;;;;;6182301;23;20005;-78
2023/05/29 00:54:56;;;;;;;7.10;4.50;;;23.10;63.30;;;;;;6184958;23;20007;-78
2023/05/29 00:57:22;;;;;;;5.85;4.30;;;23.10;63.30;;;;;;6183510;23;19997;-78
2023/05/29 00:59:48;;;;;;;4.32;3.70;;;23.10;63.70;;;;;;6184752;23;20082;-78
2023/05/29 01:02:16;;;;;;;6.95;4.95;;;23.00;63.60;;;;;;6184600;23;20419;-78
2023/05/29 01:04:45;;;;;;;7.03;4.25;;;23.10;63.90;;;;;;6184944;23;20016;-78
2023/05/29 01:07:10;;;;;;;8.55;5.07;;;23.10;64.10;;;;;;6183850;23;20427;-78
2023/05/29 01:09:36;;;;;;;5.78;3.75;;;23.10;64.10;;;;;;6185296;23;20088;-78
2023/05/29 01:12:11;;;;;;;6.57;4.43;;;23.10;64.10;;;;;;6182987;23;20011;-77
2023/05/29 01:14:43;;;;;;;6.47;3.95;;;23.10;64.00;;;;;;6185036;23;20001;-78
2023/05/29 01:17:20;;;;;;;8.25;4.53;;;23.10;64.10;;;;;;6185067;23;20063;-77
2023/05/29 01:19:57;;;;;;;6.65;3.83;;;23.10;64.20;;;;;;6185403;23;20024;-78
2023/05/29 01:22:42;;;;;;;6.75;4.88;;;23.10;64.50;;;;;;6184607;23;20076;-77
2023/05/29 01:25:29;;;;;;;10.48;4.18;;;23.00;64.60;;;;;;6184885;23;20001;-78
2023/05/29 01:27:56;;;;;;;5.82;4.20;;;23.00;64.60;;;;;;6184608;23;20039;-79
2023/05/29 01:30:24;;;;;;;8.18;4.00;;;23.00;64.70;;;;;;6173185;23;20083;-79
2023/05/29 01:32:51;;;;;;;5.15;3.47;;;22.90;64.50;;;;;;6183941;23;20005;-79
2023/05/29 01:35:17;;;;;;;4.95;4.07;;;22.90;64.70;;;;;;6185087;23;20001;-78
2023/05/29 01:37:42;;;;;;;7.07;3.83;;;22.90;64.60;;;;;;6184606;23;20028;-78
2023/05/29 01:40:09;;;;;;;8.13;4.32;;;22.90;64.70;;;;;;6185051;23;20415;-78
2023/05/29 01:42:35;;;;;;;5.13;3.88;;;22.90;64.80;;;;;;6183878;23;20076;-78
2023/05/29 01:45:01;;;;;;;6.93;4.57;;;22.90;64.80;;;;;;6184657;23;20459;-78
2023/05/29 01:47:27;;;;;;;5.80;3.60;;;22.90;65.20;;;;;;6185058;23;20004;-78
2023/05/29 01:49:54;;;;;;;4.75;3.70;;;22.90;65.00;;;;;;6184900;23;19997;-78
2023/05/29 01:52:20;;;;;;;9.35;4.63;;;22.90;65.00;;;;;;6184459;23;20100;-78
2023/05/29 01:54:46;;;;;;;5.45;3.63;;;22.90;64.70;;;;;;6184826;23;20526;-78
2023/05/29 01:57:12;;;;;;;6.20;3.95;;;22.90;64.70;;;;;;6185262;23;20297;-78
2023/05/29 01:59:38;;;;;;;5.28;3.47;;;23.00;64.60;;;;;;6184545;23;20012;-78
2023/05/29 02:02:08;;;;;;;5.28;3.50;;;22.90;64.30;;;;;;6184844;23;20008;-77
2023/05/29 02:04:33;;;;;;;5.47;3.30;;;23.00;64.40;;;;;;6184987;23;20108;-77
2023/05/29 02:06:59;;;;;;;7.72;3.88;;;22.90;64.50;;;;;;6185327;23;20404;-77
2023/05/29 02:09:25;;;;;;;5.10;3.45;;;22.90;64.50;;;;;;6185810;23;20084;-77
2023/05/29 02:11:51;;;;;;;5.95;3.55;;;22.90;64.40;;;;;;6185107;23;20001;-78
2023/05/29 02:14:17;;;;;;;4.60;3.13;;;22.90;64.40;;;;;;6186705;23;20013;-78
2023/05/29 02:16:43;;;;;;;4.25;3.30;;;22.80;64.40;;;;;;6187353;23;20012;-78
2023/05/29 02:19:10;;;;;;;6.78;3.42;;;22.80;64.30;;;;;;6186840;23;20055;-77
2023/05/29 02:21:40;;;;;;;5.07;2.90;;;22.80;64.40;;;;;;6186253;23;20001;-78
2023/05/29 02:24:07;;;;;;;7.93;3.63;;;22.80;64.40;;;;;;6185611;23;20331;-77
2023/05/29 02:26:32;;;;;;;4.70;3.55;;;22.80;64.60;;;;;;6186408;23;20018;-77
2023/05/29 02:28:58;;;;;;;4.88;3.15;;;22.80;64.70;;;;;;6186507;23;20082;-77
2023/05/29 02:31:24;;;;;;;5.50;3.92;;;22.80;64.40;;;;;;6186724;23;20098;-77
2023/05/29 02:33:50;;;;;;;5.68;3.10;;;22.80;64.30;;;;;;6184796;23;20344;-77
2023/05/29 02:36:16;;;;;;;4.50;3.42;;;22.70;64.20;;;;;;6186647;23;20017;-77
2023/05/29 02:38:41;;;;;;;6.18;3.80;;;22.70;64.20;;;;;;6186288;23;20076;-78
2023/05/29 02:41:07;;;;;;;4.88;2.75;;;22.70;64.30;;;;;;6186379;23;20067;-78
2023/05/29 02:43:33;;;;;;;4.55;3.28;;;22.70;64.10;;;;;;6186323;23;20001;-78
2023/05/29 02:45:59;;;;;;;4.45;3.20;;;22.70;64.10;;;;;;6186088;23;20009;-77
2023/05/29 02:48:25;;;;;;;4.28;3.08;;;22.70;64.20;;;;;;6186199;23;20474;-77
2023/05/29 02:50:51;;;;;;;7.30;3.30;;;22.70;64.30;;;;;;6184925;23;20050;-77
2023/05/29 02:53:17;;;;;;;5.43;3.13;;;22.70;64.60;;;;;;6186540;23;20320;-77
2023/05/29 02:55:43;;;;;;;5.72;3.22;;;22.70;64.60;;;;;;6186243;23;20076;-76
2023/05/29 02:58:08;;;;;;;4.97;3.53;;;22.70;64.40;;;;;;6186495;23;20012;-76
2023/05/29 03:00:34;;;;;;;6.25;3.38;;;22.70;64.40;;;;;;6186095;23;20027;-77
2023/05/29 03:03:00;;;;;;;5.15;3.60;;;22.70;64.30;;;;;;6186202;23;20036;-77
2023/05/29 03:05:26;;;;;;;4.20;2.90;;;22.70;64.60;;;;;;6185002;23;20403;-78
2023/05/29 03:07:51;;;;;;;3.90;3.17;;;22.70;64.50;;;;;;6186361;23;20052;-77
2023/05/29 03:10:17;;;;;;;4.50;3.13;;;22.70;64.60;;;;;;6186112;23;20355;-79
2023/05/29 03:12:44;;;;;;;4.85;3.22;;;22.70;64.40;;;;;;6186274;23;20423;-78
2023/05/29 03:15:10;;;;;;;5.30;3.53;;;22.70;64.20;;;;;;6186355;23;20001;-79
2023/05/29 03:17:38;;;;;;;3.80;2.78;;;22.70;64.40;;;;;;6186385;23;20005;-79
2023/05/29 03:20:05;;;;;;;5.45;3.10;;;22.70;64.20;;;;;;6185646;23;20005;-78
2023/05/29 03:22:32;;;;;;;6.35;3.40;;;22.70;64.20;;;;;;6185182;23;20056;-78
2023/05/29 03:24:58;;;;;;;4.50;3.33;;;22.70;64.30;;;;;;6186586;23;20016;-79
2023/05/29 03:27:23;;;;;;;6.68;3.13;;;22.70;64.20;;;;;;6185901;23;20045;-79
2023/05/29 03:29:49;;;;;;;8.05;3.40;;;22.80;64.10;;;;;;6185712;23;20008;-79
2023/05/29 03:32:15;;;;;;;4.47;3.10;;;22.70;64.10;;;;;;6186006;23;20051;-79
2023/05/29 03:34:40;;;;;;;5.82;3.53;;;22.70;64.00;;;;;;6184602;23;20009;-79
2023/05/29 03:37:06;;;;;;;4.35;3.33;;;22.70;64.10;;;;;;6186304;23;20285;-79
2023/05/29 03:39:31;;;;;;;5.60;3.20;;;22.80;64.20;;;;;;6185194;23;20009;-79
2023/05/29 03:41:57;;;;;;;4.97;3.50;;;22.70;64.20;;;;;;6185992;23;20005;-78
2023/05/29 03:44:23;;;;;;;4.18;3.20;;;22.80;64.20;;;;;;6185775;23;20008;-78
2023/05/29 03:46:51;;;;;;;4.88;3.15;;;22.80;64.10;;;;;;6186567;23;20004;-78
2023/05/29 03:49:16;;;;;;;6.25;3.50;;;22.80;64.20;;;;;;6185845;23;20339;-78
2023/05/29 03:51:42;;;;;;;5.78;3.17;;;22.80;64.30;;;;;;6185612;23;20080;-79
2023/05/29 03:54:08;;;;;;;6.05;3.38;;;22.80;64.20;;;;;;6185212;23;20008;-79
2023/05/29 03:56:35;;;;;;;5.47;3.38;;;22.80;64.30;;;;;;6186589;23;20328;-79
2023/05/29 03:59:00;;;;;;;6.38;3.33;;;22.80;64.20;;;;;;6186108;23;20016;-79
2023/05/29 04:01:26;;;;;;;5.07;3.13;;;22.80;64.00;;;;;;6186173;23;20005;-79
2023/05/29 04:03:52;;;;;;;4.05;2.63;;;22.80;63.80;;;;;;6185579;23;20097;-80
2023/05/29 04:06:17;;;;;;;4.15;3.00;;;22.70;63.80;;;;;;6186014;23;19997;-80
2023/05/29 04:08:43;;;;;;;3.60;2.83;;;22.70;63.90;;;;;;6185229;23;20072;-80
2023/05/29 04:11:09;;;;;;;5.32;3.40;;;22.70;64.00;;;;;;6185383;23;20406;-80
2023/05/29 04:13:35;;;;;;;4.35;3.13;;;22.60;64.00;;;;;;6185882;23;20009;-80
2023/05/29 04:16:00;;;;;;;4.97;3.35;;;22.60;64.10;;;;;;6185515;23;20459;-79
2023/05/29 04:18:26;;;;;;;5.85;3.80;;;22.60;64.30;;;;;;6185666;23;20005;-80
2023/05/29 04:20:53;;;;;;;5.50;3.40;;;22.60;64.30;;;;;;6185117;23;20029;-80
2023/05/29 04:23:19;;;;;;;5.22;3.47;;;22.60;64.50;;;;;;6185458;23;20001;-80
2023/05/29 04:25:44;;;;;;;5.82;3.47;;;22.70;64.50;;;;;;6185212;23;20001;-80
2023/05/29 04:28:10;;;;;;;6.03;3.38;;;22.70;64.30;;;;;;6185860;23;20111;-80
2023/05/29 04:30:36;;;;;;;4.88;3.10;;;22.60;64.50;;;;;;6184704;23;19996;-80
2023/05/29 04:33:02;;;;;;;7.00;3.67;;;22.60;64.40;;;;;;6185300;23;20038;-80
2023/05/29 04:35:28;;;;;;;5.68;3.67;;;22.60;64.50;;;;;;6185667;23;20408;-80
2023/05/29 04:37:56;;;;;;;4.20;3.05;;;22.70;64.50;;;;;;6185440;23;20008;-80
2023/05/29 04:40:22;;;;;;;5.50;3.42;;;22.60;64.30;;;;;;6184952;23;19997;-80
2023/05/29 04:42:48;;;;;;;5.40;3.30;;;22.60;64.20;;;;;;6185258;23;20089;-79
2023/05/29 04:45:13;;;;;;;8.88;3.53;;;22.60;64.30;;;;;;6185019;23;20005;-80
2023/05/29 04:47:45;;;;;;;6.03;3.95;;;22.60;64.50;;;;;;6184464;23;20025;-79
2023/05/29 04:50:12;;;;;;;5.68;3.08;;;22.60;64.40;;;;;;6184758;23;20008;-79
2023/05/29 04:52:37;;;;;;;9.02;3.72;;;22.50;64.50;;;;;;6185322;23;20048;-79
2023/05/29 04:55:04;;;;;;;4.88;3.70;;;22.50;64.60;;;;;;6185024;23;20028;-79
2023/05/29 04:57:30;;;;;;;6.20;3.30;;;22.40;64.70;;;;;;6185656;23;20001;-78
2023/05/29 04:59:56;;;;;;;6.20;3.70;;;22.40;64.90;;;;;;6184254;23;20012;-78
2023/05/29 05:02:21;;;;;;;5.32;3.53;;;22.40;65.10;;;;;;6184049;23;20005;-78
2023/05/29 05:04:47;;;;;;;4.03;3.13;;;22.40;65.10;;;;;;6184686;23;20336;-78
2023/05/29 05:07:15;;;;;;;6.13;3.42;;;22.50;65.10;;;;;;6185335;23;20048;-78
2023/05/29 05:09:41;;;;;;;4.20;3.10;;;22.50;65.00;;;;;;6184513;23;20028;-78
2023/05/29 05:12:07;;;;;;;5.35;3.80;;;22.50;65.10;;;;;;6183577;23;20044;-78
2023/05/29 05:14:33;;;;;;;5.07;3.92;;;22.50;65.40;;;;;;6184534;23;20009;-78
2023/05/29 05:16:58;;;;;;;8.80;4.22;;;22.50;65.20;;;;;;6185324;23;20009;-78
2023/05/29 05:19:24;;;;;;;5.28;3.70;;;22.60;65.10;;;;;;6183941;23;20392;-78
2023/05/29 05:21:50;;;;;;;4.70;3.60;;;22.60;65.10;;;;;;6183428;23;20005;-78
2023/05/29 05:24:15;;;;;;;6.28;3.47;;;22.70;65.30;;;;;;6180588;23;20009;-79
2023/05/29 05:26:41;;;;;;;5.47;3.13;;;22.80;65.70;;;;;;6184188;23;20033;-79
2023/05/29 05:29:07;;;;;;;12.88;3.40;;;22.90;65.80;;;;;;6185263;23;20055;-79
2023/05/29 05:31:32;;;;;;;5.65;3.33;;;22.90;65.40;;;;;;6180981;23;20025;-79
2023/05/29 05:33:58;;;;;;;5.22;3.53;;;22.90;65.00;;;;;;6183551;23;20013;-79
2023/05/29 05:36:24;;;;;;;5.72;3.10;;;22.90;64.80;;;;;;6182936;23;20001;-78
2023/05/29 05:38:49;;;;;;;4.55;3.35;;;23.00;64.70;;;;;;6185351;23;20005;-78
2023/05/29 05:41:15;;;;;;;5.13;3.58;;;23.00;64.60;;;;;;6182890;23;20005;-79
2023/05/29 05:43:41;;;;;;;5.63;3.40;;;23.00;64.50;;;;;;6183802;23;20052;-79
2023/05/29 05:46:06;;;;;;;5.80;3.40;;;23.00;64.50;;;;;;6186601;23;19997;-78
2023/05/29 05:48:32;;;;;;;6.65;3.90;;;23.00;64.20;;;;;;6186559;23;20416;-78
2023/05/29 05:50:58;;;;;;;4.57;2.95;;;23.00;64.30;;;;;;6185766;23;20305;-78
2023/05/29 05:53:24;;;;;;;6.90;3.60;;;23.10;64.20;;;;;;6186590;23;20061;-78
2023/05/29 05:55:49;;;;;;;4.75;3.60;;;23.10;64.40;;;;;;6185370;23;20351;-78
2023/05/29 05:58:15;;;;;;;6.95;3.25;;;23.10;64.00;;;;;;6186572;23;20404;-80
2023/05/29 06:00:42;;;;;;;5.57;3.35;;;23.10;64.00;;;;;;6185325;23;20053;-79
2023/05/29 06:03:08;;;;;;;7.20;3.45;;;23.20;64.10;;;;;;6186155;23;20021;-80
2023/05/29 06:05:36;;;;;;;6.55;3.33;;;23.20;64.00;;;;;;6185416;23;20028;-79
2023/05/29 06:08:02;;;;;;;4.88;2.97;;;23.30;64.10;;;;;;6185230;23;20001;-79
2023/05/29 06:10:27;;;;;;;5.68;3.50;;;23.30;64.00;;;;;;6185930;23;20005;-80
2023/05/29 06:12:53;;;;;;;5.50;3.50;;;23.40;63.90;;;;;;6186620;23;20041;-78
2023/05/29 06:15:19;;;;;;;5.53;3.38;;;23.50;63.70;;;;;;6186513;23;20136;-78
2023/05/29 06:17:45;;;;;;;4.32;3.15;;;23.50;63.60;;;;;;6185987;23;20029;-78
2023/05/29 06:20:11;;;;;;;4.35;3.20;;;23.60;63.70;;;;;;6186737;23;20004;-79
2023/05/29 06:22:37;;;;;;;6.70;3.70;;;23.60;63.20;;;;;;6186972;23;20339;-77
2023/05/29 06:25:03;;;;;;;5.10;3.10;;;23.60;62.90;;;;;;6186008;23;20015;-77
2023/05/29 06:27:29;;;;;;;8.07;2.83;;;23.70;62.80;;;;;;6186208;23;20084;-77
2023/05/29 06:29:55;;;;;;;5.35;3.08;;;23.80;62.70;;;;;;6186565;23;20001;-76
2023/05/29 06:32:22;;;;;;;4.55;2.75;;;23.80;62.30;;;;;;6183273;23;20009;-77
2023/05/29 06:34:47;;;;;;;5.47;3.08;;;23.90;62.20;;;;;;6185230;23;20001;-78
2023/05/29 06:37:13;;;;;;;4.93;3.38;;;23.90;62.30;;;;;;6184526;23;20013;-77
2023/05/29 06:39:41;;;;;;;4.28;3.13;;;24.00;62.10;;;;;;6186807;23;20030;-78
2023/05/29 06:42:08;;;;;;;6.10;3.08;;;24.10;61.70;;;;;;6185918;23;20005;-77
2023/05/29 06:44:34;;;;;;;6.13;3.30;;;24.10;61.70;;;;;;6185342;23;20059;-80
2023/05/29 06:46:59;;;;;;;4.50;2.92;;;24.20;61.50;;;;;;6184870;23;20015;-76
2023/05/29 06:49:25;;;;;;;6.22;3.65;;;24.20;61.00;;;;;;6184810;23;20004;-78
2023/05/29 06:51:51;;;;;;;3.40;3.10;;;24.30;60.90;;;;;;6183494;23;20001;-78
2023/05/29 06:54:17;;;;;;;3.33;2.58;;;24.30;60.40;;;;;;6183135;23;20001;-78
2023/05/29 06:56:42;;;;;;;5.93;4.10;;;24.40;60.50;;;;;;6185111;23;20001;-76
2023/05/29 06:59:08;;;;;;;9.20;3.72;;;24.40;60.30;;;;;;6185138;23;20005;-76
2023/05/29 07:01:34;;;;;;;5.18;3.50;;;24.40;60.40;;;;;;6185073;23;20067;-76
2023/05/29 07:04:04;;;;;;;4.50;3.33;;;24.40;60.20;;;;;;6184586;23;20013;-76
2023/05/29 07:06:30;;;;;;;6.20;3.20;;;24.40;60.00;;;;;;6184562;23;20005;-76
2023/05/29 07:08:56;;;;;;;4.63;3.17;;;24.50;60.10;;;;;;6184490;23;20007;-76
2023/05/29 07:11:22;;;;;;;3.08;2.58;;;24.60;60.10;;;;;;6185879;23;20404;-77
2023/05/29 07:13:47;;;;;;;6.40;2.63;;;24.70;60.30;;;;;;6191701;23;20001;-75
2023/05/29 07:16:13;;;;;;;6.50;3.17;;;24.80;60.30;;;;;;6192220;23;20059;-76
2023/05/29 07:18:39;;;;;;;4.53;2.95;;;24.80;60.10;;;;;;6189714;23;20012;-76
2023/05/29 07:21:05;;;;;;;7.05;3.10;;;24.80;59.80;;;;;;6187409;23;20422;-76
2023/05/29 07:23:31;;;;;;;8.35;3.80;;;24.90;59.70;;;;;;6186280;23;20016;-76
2023/05/29 07:25:57;;;;;;;5.55;3.33;;;24.90;59.80;;;;;;6185438;23;20036;-76
2023/05/29 07:28:23;;;;;;;5.13;3.10;;;24.90;59.60;;;;;;6182910;23;20327;-76
2023/05/29 07:30:48;;;;;;;5.63;3.28;;;24.90;59.50;;;;;;6183564;23;20013;-77
2023/05/29 07:33:14;;;;;;;5.97;3.67;;;25.00;59.60;;;;;;6184645;23;20008;-78
2023/05/29 07:35:40;;;;;;;7.90;3.95;;;25.00;59.70;;;;;;6186504;23;19997;-79
2023/05/29 07:38:06;;;;;;;6.07;3.53;;;25.10;59.50;;;;;;6185997;23;20334;-79
2023/05/29 07:40:31;;;;;;;4.97;3.45;;;25.10;59.50;;;;;;6185203;23;20329;-79
2023/05/29 07:42:57;;;;;;;4.55;3.40;;;25.20;59.40;;;;;;6186109;23;19997;-79
2023/05/29 07:45:23;;;;;;;6.82;3.33;;;25.20;59.10;;;;;;6182794;23;20339;-79
2023/05/29 07:47:48;;;;;;;9.10;3.78;;;25.20;58.90;;;;;;6185664;23;20428;-78
2023/05/29 07:50:14;;;;;;;6.88;3.30;;;25.30;59.80;;;;;;6184448;23;20040;-79
2023/05/29 07:52:43;;;;;;;10.52;4.55;;;25.40;59.50;;;;;;6184114;23;20009;-79
2023/05/29 07:55:10;;;;;;;5.40;3.17;;;25.40;59.40;;;;;;6185456;23;20001;-79
2023/05/29 07:57:35;;;;;;;3.83;2.95;;;25.40;59.20;;;;;;6184424;23;20012;-78
2023/05/29 08:00:08;;;;;;;5.30;3.17;;;25.50;59.60;;;;;;6185288;23;20320;-79
2023/05/29 08:02:34;;;;;;;5.00;3.33;;;25.50;59.60;;;;;;6184346;23;20005;-79
2023/05/29 08:04:59;;;;;;;6.40;3.22;;;25.60;59.20;;;;;;6185547;23;20004;-79
2023/05/29 08:07:28;;;;;;;6.78;3.63;;;25.70;59.70;;;;;;6184752;23;20001;-78
2023/05/29 08:09:53;;;;;;;7.53;3.63;;;25.70;59.50;;;;;;6185782;23;20001;-78
2023/05/29 08:12:20;;;;;;;7.28;3.78;;;25.80;59.30;;;;;;6185157;23;20120;-79
2023/05/29 08:14:46;;;;;;;8.30;3.78;;;25.90;59.00;;;;;;6183982;23;20091;-78
2023/05/29 08:17:11;;;;;;;5.18;3.22;;;25.90;58.50;;;;;;6185648;23;20348;-78
2023/05/29 08:19:37;;;;;;;4.93;3.85;;;26.00;57.20;;;;;;6183654;23;20012;-80
2023/05/29 08:22:03;;;;;;;5.80;3.08;;;26.00;56.30;;;;;;6182359;23;20009;-78
2023/05/29 08:24:28;;;;;;;6.22;3.38;;;26.10;56.80;;;;;;6185448;23;20380;-78
2023/05/29 08:26:54;;;;;;;8.00;3.38;;;26.10;56.20;;;;;;6185691;23;20052;-76
2023/05/29 08:29:20;;;;;;;5.15;3.40;;;26.10;55.60;;;;;;6185551;23;20068;-77
2023/05/29 08:31:46;;;;;;;9.13;2.92;;;26.20;56.00;;;;;;6185490;23;20024;-77
2023/05/29 08:34:11;;;;;;;8.82;3.35;;;26.30;56.30;;;;;;6185296;23;20024;-77
2023/05/29 08:36:37;;;;;;;4.85;3.15;;;26.30;55.60;;;;;;6185523;23;20001;-78
2023/05/29 08:39:03;;;;;;;21.08;4.50;;;26.30;56.30;;;;;;6185504;23;20001;-77
2023/05/29 08:41:44;;;;;;;9.95;3.63;;;26.40;56.50;;;;;;6185654;23;20005;-77
2023/05/29 08:44:13;;;;;;;5.35;3.35;;;26.50;56.70;;;;;;6185915;23;20036;-77
2023/05/29 08:46:40;;;;;;;5.22;3.42;;;26.60;55.10;;;;;;6185125;23;19997;-77
2023/05/29 08:49:08;;;;;;;5.00;3.30;;;26.60;54.80;;;;;;6188278;23;20036;-79
2023/05/29 08:51:43;;;;;;;5.28;3.30;;;26.70;54.80;;;;;;6185929;23;20008;-79
2023/05/29 08:54:10;;;;;;;6.63;3.75;;;26.70;55.10;;;;;;6185245;23;20072;-79
2023/05/29 08:56:36;;;;;;;6.93;3.63;;;26.80;54.60;;;;;;6185791;23;20361;-79
2023/05/29 08:59:02;;;;;;;8.00;3.60;;;26.80;54.60;;;;;;6184818;23;20032;-79
2023/05/29 09:01:28;;;;;;;5.97;3.58;;;26.80;54.20;;;;;;6184679;23;20129;-79
2023/05/29 09:03:54;;;;;;;6.38;4.00;;;26.80;54.10;;;;;;6184864;23;20021;-79
2023/05/29 09:06:21;;;;;;;6.10;3.40;;;26.90;54.10;;;;;;6183350;23;20094;-78
2023/05/29 09:08:47;;;;;;;5.57;3.72;;;26.90;54.00;;;;;;6185582;23;20001;-77
2023/05/29 09:11:14;;;;;;;7.07;3.70;;;27.00;54.20;;;;;;6183959;23;20012;-79
2023/05/29 09:13:39;;;;;;;5.38;3.25;;;27.00;54.20;;;;;;6184908;23;20420;-79
2023/05/29 09:16:06;;;;;;;8.00;4.07;;;27.10;54.20;;;;;;6184255;23;20083;-79
2023/05/29 09:18:32;;;;;;;7.55;3.85;;;27.10;53.90;;;;;;6183608;23;20016;-79
2023/05/29 09:21:08;;;;;;;5.90;3.60;;;27.20;54.70;;;;;;6185018;23;20033;-81
2023/05/29 09:23:35;;;;;;;5.63;3.30;;;27.20;54.80;;;;;;6184852;23;20005;-80
2023/05/29 09:26:03;;;;;;;3.50;2.85;;;27.30;54.80;;;;;;6183327;23;20332;-80
2023/05/29 09:28:31;;;;;;;4.25;3.45;;;27.30;54.70;;;;;;6184146;23;20008;-78
2023/05/29 09:30:57;;;;;;;4.88;3.03;;;27.30;54.20;;;;;;6185615;23;20021;-77
2023/05/29 09:33:22;;;;;;;7.13;3.47;;;27.40;54.80;;;;;;6182237;23;20005;-77
2023/05/29 09:35:50;;;;;;;7.75;4.13;;;27.50;55.00;;;;;;6184061;23;20425;-77
2023/05/29 09:38:19;;;;;;;4.57;3.25;;;27.60;54.90;;;;;;6184665;23;19997;-78
2023/05/29 09:40:46;;;;;;;7.03;3.07;;;27.60;55.10;;;;;;6184995;23;20036;-78
2023/05/29 09:43:14;;;;;;;7.65;3.60;;;27.80;55.10;;;;;;6184853;23;20232;-78
2023/05/29 09:45:41;;;;;;;6.95;3.95;;;27.80;54.20;;;;;;6184002;23;20005;-79
2023/05/29 09:48:08;;;;;;;6.88;3.70;;;27.90;53.80;;;;;;6185124;23;20001;-79
2023/05/29 09:50:34;;;;;;;7.00;3.83;;;27.90;53.90;;;;;;6184536;23;20001;-78
2023/05/29 09:53:01;;;;;;;9.63;4.30;;;27.90;54.80;;;;;;6183820;23;20009;-79
2023/05/29 09:55:30;;;;;;;6.38;3.88;;;28.00;53.90;;;;;;6185086;23;20028;-80
2023/05/29 09:57:56;;;;;;;10.18;4.28;;;28.10;53.20;;;;;;6183825;23;20407;-77
2023/05/29 10:00:23;;;;;;;5.32;3.60;;;28.20;53.30;;;;;;6185536;23;20009;-77
2023/05/29 10:02:49;;;;;;;6.18;3.42;;;28.20;54.00;;;;;;6185480;23;20005;-77
2023/05/29 10:05:15;;;;;;;3.75;2.83;;;28.30;53.80;;;;;;6184264;23;20005;-77
2023/05/29 10:07:48;;;;;;;4.82;2.97;;;28.40;54.30;;;;;;6183526;23;20001;-77
2023/05/29 10:10:18;;;;;;;6.22;3.50;;;28.60;54.50;;;;;;6183890;23;20005;-77
2023/05/29 10:12:49;;;;;;;6.80;4.07;;;28.70;54.50;;;;;;6182985;23;20052;-77
2023/05/29 10:15:19;;;;;;;5.10;3.92;;;28.80;51.60;;;;;;6185242;23;20009;-79
2023/05/29 10:18:02;;;;;;;5.20;3.45;;;28.80;52.80;;;;;;6185531;23;20005;-79
2023/05/29 10:20:29;;;;;;;7.10;3.70;;;28.90;52.50;;;;;;6185757;23;20343;-79
2023/05/29 10:22:58;;;;;;;6.07;4.07;;;29.00;52.40;;;;;;6185007;23;20005;-79
2023/05/29 10:25:27;;;;;;;5.10;3.58;;;29.00;52.00;;;;;;6184006;23;20332;-79
2023/05/29 10:27:54;;;;;;;4.72;3.28;;;29.00;52.50;;;;;;6185718;23;20001;-79
2023/05/29 10:30:45;;;;;;;5.55;3.47;;;29.00;52.30;;;;;;6186195;23;20021;-79
2023/05/29 10:33:26;;;;;;;7.47;4.38;;;29.20;52.80;;;;;;6185152;23;20012;-79
2023/05/29 10:36:18;;;;;;;6.28;3.67;;;29.30;51.40;;;;;;6186252;23;20001;-79
2023/05/29 10:38:48;;;;;;;6.05;3.22;;;29.40;52.30;;;;;;6186934;23;20001;-79
2023/05/29 10:41:26;;;;;;;6.07;3.78;;;29.50;52.20;;;;;;6187083;23;20024;-79
2023/05/29 10:44:15;;;;;;;4.85;3.40;;;29.60;51.40;;;;;;6185971;23;20001;-79
2023/05/29 10:46:50;;;;;;;4.75;3.20;;;29.60;50.30;;;;;;6185398;23;20009;-79
2023/05/29 10:49:21;;;;;;;5.97;3.63;;;29.80;51.10;;;;;;6186122;23;20025;-79
2023/05/29 10:51:48;;;;;;;5.72;3.70;;;29.90;49.40;;;;;;6186517;23;20081;-77
2023/05/29 10:54:16;;;;;;;4.15;3.30;;;29.90;48.10;;;;;;6185859;23;20004;-76
2023/05/29 10:56:45;;;;;;;4.28;3.35;;;30.00;48.00;;;;;;6186414;23;20001;-76
2023/05/29 10:59:11;;;;;;;5.20;3.15;;;30.00;47.30;;;;;;6186310;23;20332;-76
2023/05/29 11:01:38;;;;;;;5.85;3.20;;;30.00;47.40;;;;;;6186336;23;20416;-76
2023/05/29 11:04:32;;;;;;;7.45;4.18;;;30.10;48.00;;;;;;6186082;23;20092;-76
2023/05/29 11:06:58;;;;;;;6.30;3.33;;;30.30;45.60;;;;;;6183090;23;20005;-77
2023/05/29 11:09:35;;;;;;;7.88;3.47;;;30.30;46.50;;;;;;6186752;23;19997;-79
2023/05/29 11:12:42;;;;;;;5.10;3.30;;;30.50;47.30;;;;;;6184824;23;20001;-79
2023/05/29 11:15:13;;;;;;;3.85;2.92;;;30.70;47.10;;;;;;6185977;23;20359;-79
2023/05/29 11:17:39;;;;;;;7.57;3.50;;;30.90;45.40;;;;;;6186765;23;20104;-79
2023/05/29 11:20:07;;;;;;;6.03;3.70;;;31.00;45.60;;;;;;6187015;23;20012;-79
2023/05/29 11:22:48;;;;;;;5.75;3.72;;;31.20;46.00;;;;;;6187174;23;20401;-79
2023/05/29 11:25:15;;;;;;;7.20;3.40;;;31.40;45.00;;;;;;6186355;23;20005;-79
2023/05/29 11:27:42;;;;;;;6.30;3.53;;;31.60;44.80;;;;;;6186653;23;20072;-79
2023/05/29 11:30:08;;;;;;;8.57;3.70;;;31.70;44.00;;;;;;6186665;23;20004;-78
2023/05/29 11:32:36;;;;;;;9.60;3.85;;;31.90;41.60;;;;;;6182682;23;20001;-78
2023/05/29 11:35:13;;;;;;;8.63;3.58;;;32.30;43.10;;;;;;6184239;23;20059;-78
2023/05/29 11:37:46;;;;;;;4.50;3.20;;;32.50;43.90;;;;;;6183566;23;20012;-78
2023/05/29 11:40:13;;;;;;;5.97;3.53;;;32.80;44.10;;;;;;6184258;23;20020;-79
2023/05/29 11:42:44;;;;;;;5.25;3.80;;;33.10;43.30;;;;;;6186169;23;20008;-79
2023/05/29 11:45:11;;;;;;;6.70;3.42;;;33.30;43.70;;;;;;6186474;23;20367;-79
2023/05/29 11:48:01;;;;;;;5.80;3.53;;;33.50;42.30;;;;;;6185747;23;19997;-78
2023/05/29 11:50:32;;;;;;;6.47;3.58;;;33.80;43.00;;;;;;6184492;23;20059;-78
2023/05/29 11:52:59;;;;;;;9.05;3.95;;;34.00;42.40;;;;;;6185908;23;20005;-79
2023/05/29 11:55:26;;;;;;;4.47;3.35;;;34.10;42.20;;;;;;6185430;23;20001;-77
2023/05/29 11:58:00;;;;;;;6.20;3.83;;;34.20;42.80;;;;;;6181684;23;20471;-77
2023/05/29 12:00:30;;;;;;;6.07;3.38;;;34.30;41.90;;;;;;6182902;23;20448;-78
2023/05/29 12:02:58;;;;;;;4.00;3.40;;;34.50;42.30;;;;;;6182772;23;20017;-78
2023/05/29 12:05:24;;;;;;;5.82;3.45;;;34.60;41.40;;;;;;6182381;23;20005;-79
2023/05/29 12:07:56;;;;;;;3.20;2.90;;;34.60;41.40;;;;;;6180472;23;20040;-79
2023/05/29 12:10:23;;;;;;;6.07;3.72;;;34.70;41.30;;;;;;6182333;23;20004;-79
2023/05/29 12:12:55;;;;;;;6.47;3.38;;;34.80;42.00;;;;;;6182484;23;20379;-80
2023/05/29 12:15:22;;;;;;;9.18;3.08;;;34.90;40.60;;;;;;6182455;23;20009;-78
2023/05/29 12:17:50;;;;;;;5.25;3.40;;;34.90;41.00;;;;;;6182848;23;20011;-78
2023/05/29 12:20:16;;;;;;;7.40;4.03;;;35.00;40.70;;;;;;6182448;23;20083;-78
2023/05/29 12:22:43;;;;;;;7.03;3.42;;;35.00;40.50;;;;;;6183022;23;20100;-78
2023/05/29 12:25:13;;;;;;;6.35;3.67;;;35.00;40.40;;;;;;6182857;23;20005;-78
2023/05/29 12:27:42;;;;;;;4.05;3.50;;;35.10;40.70;;;;;;6182811;23;20008;-78
2023/05/29 12:30:10;;;;;;;7.87;4.00;;;35.20;41.00;;;;;;6182542;23;20013;-78
2023/05/29 12:32:40;;;;;;;4.22;3.03;;;35.20;39.40;;;;;;6182713;23;20005;-78
2023/05/29 12:35:14;;;;;;;4.32;3.45;;;35.30;40.20;;;;;;6182958;23;20482;-79
2023/05/29 12:37:53;;;;;;;5.93;3.83;;;35.30;40.50;;;;;;6182060;23;20111;-80
2023/05/29 12:40:24;;;;;;;5.57;3.70;;;35.40;40.00;;;;;;6181756;23;20009;-78
2023/05/29 12:43:02;;;;;;;8.15;3.75;;;35.40;39.20;;;;;;6183407;23;20239;-80
2023/05/29 12:45:30;;;;;;;6.45;3.42;;;35.40;39.70;;;;;;6183027;23;20040;-79
2023/05/29 12:48:01;;;;;;;7.20;3.72;;;35.40;39.40;;;;;;6183792;23;20005;-79